North Highland, New York
Current Conditions -  °F | °C
As of 9:45 PM on Sunday 21 Dec 2014 (Local Time) from KSWF Reporting Station
Overcast Overcast  
Wind Chill: 32°   Ceiling: 3500
Heat Index: 32°   Visibility: 10mi
Dew Point: 28°   Wind: 0mph
Humidity: 87%   Direction: NA
Pressure: 30.34"   Gusts: NA
Location:  41.4593°N, 73.8985°W
Report Text: KSWF 220245Z 00000KT 10SM OVC035 00/M02 A3034
Loading
Personal Weather Stations






























Interactive Weather Map New forecast layout! Learn more

10-Day Weather Forecast

Advertisements
Track Severe Weather on mobile